Dinero, Texas
Current Conditions -  °F | °C
As of 1:35 PM on Friday 31 Oct 2014 (Local Time) from KBEA Reporting Station
Clear Clear  
Wind Chill: 77°   Ceiling: Unl
Heat Index: 78°   Visibility: 10mi
Dew Point: 44°   Wind: 16mph
Humidity: 31%   Direction: 40°NE
Pressure: 30.2"   Gusts: 22mph
Location:  28.23°N, 97.96°W
Report Text: KBEA 311835Z AUTO 04014G19KT 10SM CLR 25/07 A3020 RMK AO2 P0002 T02520069
Loading
Personal Weather Stations






























Interactive Weather Map
Tropical Storm Tracking
New forecast layout! Learn more

10-Day Weather Forecast

Advertisements
Track Severe Weather on mobile